createdAt,value
2023-02-11T00:00:49.080Z,-3.3
2023-02-11T00:01:49.328Z,-3.29
2023-02-11T00:02:49.502Z,-3.28
2023-02-11T00:03:52.056Z,-3.24
2023-02-11T00:04:50.421Z,-3.25
2023-02-11T00:06:00.880Z,-3.26
2023-02-11T00:06:53.397Z,-3.28
2023-02-11T00:07:53.844Z,-3.3
2023-02-11T00:08:55.058Z,-3.31
2023-02-11T00:09:57.328Z,-3.35
2023-02-11T00:10:58.206Z,-3.37
2023-02-11T00:11:56.105Z,-3.33
2023-02-11T00:12:56.417Z,-3.29
2023-02-11T00:14:00.137Z,-3.29
2023-02-11T00:14:57.661Z,-3.26
2023-02-11T00:15:58.208Z,-3.26
2023-02-11T00:16:58.615Z,-3.27
2023-02-11T00:17:58.810Z,-3.22
2023-02-11T00:19:00.430Z,-3.2
2023-02-11T00:19:59.615Z,-3.21
2023-02-11T00:21:00.260Z,-3.2
2023-02-11T00:22:00.580Z,-3.2
2023-02-11T00:23:00.986Z,-3.16
2023-02-11T00:24:01.308Z,-3.14
2023-02-11T00:25:01.595Z,-3.17
2023-02-11T00:26:02.372Z,-3.17
2023-02-11T00:27:02.867Z,-3.12
2023-02-11T00:28:03.222Z,-3.14
2023-02-11T00:29:04.418Z,-3.09
2023-02-11T00:30:04.714Z,-3.13
2023-02-11T00:31:06.297Z,-3.13
2023-02-11T00:32:05.932Z,-3.12
2023-02-11T00:33:04.949Z,-3.02
2023-02-11T00:34:05.364Z,-2.99
2023-02-11T00:35:06.467Z,-3
2023-02-11T00:36:13.675Z,-3.06
2023-02-11T00:37:11.214Z,-3.06
2023-02-11T00:38:11.496Z,-3.06
2023-02-11T00:39:13.482Z,-3.01
2023-02-11T00:40:12.763Z,-2.96
2023-02-11T00:41:13.905Z,-3.04
2023-02-11T00:42:15.344Z,-3.08
2023-02-11T00:43:13.493Z,-3.11
2023-02-11T00:44:14.022Z,-3.06
2023-02-11T00:45:14.540Z,-3.04
2023-02-11T00:46:15.077Z,-3.04
2023-02-11T00:47:15.291Z,-3.04
2023-02-11T00:48:15.656Z,-3.02
2023-02-11T00:49:16.107Z,-3.03
2023-02-11T00:50:16.519Z,-3.02
2023-02-11T00:51:16.957Z,-3.04
2023-02-11T00:52:20.130Z,-3.03
2023-02-11T00:53:17.592Z,-3.06
2023-02-11T00:54:17.990Z,-3.02
2023-02-11T00:55:18.810Z,-3.01
2023-02-11T00:56:19.103Z,-3
2023-02-11T00:57:19.654Z,-2.99
2023-02-11T00:58:19.754Z,-2.98
2023-02-11T00:59:20.272Z,-2.96
2023-02-11T01:00:20.488Z,-2.93
2023-02-11T01:01:21.160Z,-2.94
2023-02-11T01:02:21.337Z,-2.97
2023-02-11T01:03:22.150Z,-2.99
2023-02-11T01:04:27.692Z,-2.99
2023-02-11T01:05:25.390Z,-3.01
2023-02-11T01:06:25.547Z,-2.95
2023-02-11T01:07:26.448Z,-2.95
2023-02-11T01:08:27.720Z,-2.97
2023-02-11T01:09:26.675Z,-2.95
2023-02-11T01:10:27.311Z,-2.92
2023-02-11T01:11:27.575Z,-2.97
2023-02-11T01:12:28.047Z,-2.94
2023-02-11T01:13:29.889Z,-2.94
2023-02-11T01:14:28.776Z,-2.93
2023-02-11T01:15:29.843Z,-2.91
2023-02-11T01:16:29.615Z,-2.88
2023-02-11T01:17:30.031Z,-2.91
2023-02-11T01:18:30.445Z,-2.9
2023-02-11T01:19:30.862Z,-2.82
2023-02-11T01:20:31.277Z,-2.86
2023-02-11T01:21:31.547Z,-2.89
2023-02-11T01:22:32.279Z,-2.88
2023-02-11T01:23:32.509Z,-2.85
2023-02-11T01:24:33.336Z,-2.87
2023-02-11T01:25:33.173Z,-2.86
2023-02-11T01:26:33.776Z,-2.79
2023-02-11T01:27:34.090Z,-2.8
2023-02-11T01:28:34.724Z,-2.79
2023-02-11T01:29:34.818Z,-2.72
2023-02-11T01:30:35.236Z,-2.74
2023-02-11T01:31:36.545Z,-2.8
2023-02-11T01:32:36.469Z,-2.81
2023-02-11T01:33:37.507Z,-2.8
2023-02-11T01:34:36.916Z,-2.74
2023-02-11T01:35:39.075Z,-2.69
2023-02-11T01:36:37.737Z,-2.71
2023-02-11T01:37:38.156Z,-2.68
2023-02-11T01:38:38.661Z,-2.72
2023-02-11T01:39:39.079Z,-2.7
2023-02-11T01:40:39.397Z,-2.68
2023-02-11T01:41:39.919Z,-2.69
2023-02-11T01:42:40.428Z,-2.65
2023-02-11T01:43:46.379Z,-2.67
2023-02-11T01:44:44.032Z,-2.71
2023-02-11T01:46:45.528Z,-2.67
2023-02-11T01:47:45.909Z,-2.63
2023-02-11T01:50:52.747Z,-2.68
2023-02-11T01:52:50.953Z,-2.64
2023-02-11T01:53:53.117Z,-2.59
2023-02-11T01:54:54.661Z,-2.61
2023-02-11T01:55:53.508Z,-2.65
2023-02-11T01:56:55.160Z,-2.62
2023-02-11T01:57:56.319Z,-2.58
2023-02-11T01:59:00.480Z,-2.59
2023-02-11T02:01:05.127Z,-2.5
2023-02-11T02:02:08.514Z,-2.47
2023-02-11T02:03:15.517Z,-2.48
2023-02-11T02:04:10.373Z,-2.51
2023-02-11T02:07:22.114Z,-2.45
2023-02-11T02:10:27.106Z,-2.54
2023-02-11T02:11:28.036Z,-2.56
2023-02-11T02:12:25.386Z,-2.57
2023-02-11T02:13:26.925Z,-2.55
2023-02-11T02:14:26.117Z,-2.54
2023-02-11T02:16:33.731Z,-2.5
2023-02-11T02:39:39.381Z,-2.59
2023-02-11T02:40:46.863Z,-2.52
2023-02-11T02:41:40.066Z,-2.54
2023-02-11T02:42:41.733Z,-2.52
2023-02-11T02:44:40.231Z,-2.55
2023-02-11T02:45:40.658Z,-2.54
2023-02-11T02:46:40.999Z,-2.51
2023-02-11T02:47:41.162Z,-2.48
2023-02-11T02:48:41.797Z,-2.49
2023-02-11T02:49:42.015Z,-2.5
2023-02-11T02:50:42.274Z,-2.55
2023-02-11T03:11:24.542Z,-2.53
2023-02-11T03:12:24.756Z,-2.53
2023-02-11T03:13:29.878Z,-2.53
2023-02-11T03:14:29.898Z,-2.55
2023-02-11T03:15:30.719Z,-2.52
2023-02-11T03:16:29.058Z,-2.58
2023-02-11T03:17:30.271Z,-2.58
2023-02-11T03:18:31.352Z,-2.55
2023-02-11T03:20:37.213Z,-2.53
2023-02-11T03:21:38.544Z,-2.52
2023-02-11T03:22:42.773Z,-2.47
2023-02-11T03:23:44.401Z,-2.55
2023-02-11T03:24:42.632Z,-2.56
2023-02-11T03:25:48.503Z,-2.58
2023-02-11T03:26:54.669Z,-2.54
2023-02-11T03:27:52.994Z,-2.57
2023-02-11T03:30:05.430Z,-2.54
2023-02-11T03:38:20.002Z,-2.37
2023-02-11T03:39:20.913Z,-2.43
2023-02-11T03:41:21.678Z,-2.31
2023-02-11T03:42:23.843Z,-2.31
2023-02-11T03:43:26.710Z,-2.34
2023-02-11T03:44:29.067Z,-2.25
2023-02-11T03:45:28.575Z,-2.26
2023-02-11T03:46:33.520Z,-2.36
2023-02-11T03:47:35.446Z,-2.4
2023-02-11T03:48:42.009Z,-2.34
2023-02-11T03:49:38.416Z,-2.31
2023-02-11T03:50:38.386Z,-2.25
2023-02-11T03:51:37.502Z,-2.24
2023-02-11T03:52:38.039Z,-2.22
2023-02-11T03:53:39.058Z,-2.17
2023-02-11T03:54:41.642Z,-2.15
2023-02-11T03:55:40.711Z,-2.14
2023-02-11T03:56:49.710Z,-2.11
2023-02-11T03:57:42.168Z,-2.08
2023-02-11T03:58:45.135Z,-2.11
2023-02-11T04:00:46.321Z,-2.11
2023-02-11T04:01:46.182Z,-2.12
2023-02-11T04:02:46.790Z,-2.05
2023-02-11T04:03:46.875Z,-2.03
2023-02-11T04:04:47.856Z,-2.05
2023-02-11T04:05:47.590Z,-2.08
2023-02-11T04:06:47.858Z,-2.02
2023-02-11T04:07:48.393Z,-2.01
2023-02-11T04:08:48.796Z,-2.01
2023-02-11T04:09:49.318Z,-2.01
2023-02-11T04:10:49.210Z,-1.95
2023-02-11T04:11:49.536Z,-1.93
2023-02-11T04:12:49.939Z,-1.93
2023-02-11T04:13:50.147Z,-1.94
2023-02-11T04:14:50.483Z,-1.92
2023-02-11T04:15:51.251Z,-1.86
2023-02-11T04:16:51.205Z,-1.82
2023-02-11T04:17:51.918Z,-1.8
2023-02-11T04:18:51.734Z,-1.76
2023-02-11T04:19:52.244Z,-1.79
2023-02-11T04:20:52.569Z,-1.8
2023-02-11T04:21:52.760Z,-1.79
2023-02-11T04:22:53.153Z,-1.75
2023-02-11T04:23:53.499Z,-1.7
2023-02-11T04:24:53.713Z,-1.64
2023-02-11T04:25:54.131Z,-1.62
2023-02-11T04:26:54.339Z,-1.6
2023-02-11T04:27:54.836Z,-1.65
2023-02-11T04:28:55.275Z,-1.69
2023-02-11T04:29:55.586Z,-1.73
2023-02-11T04:30:56.233Z,-1.7
2023-02-11T04:31:56.354Z,-1.66
2023-02-11T04:32:58.552Z,-1.64
2023-02-11T04:33:57.158Z,-1.67
2023-02-11T04:34:56.949Z,-1.67
2023-02-11T04:35:57.372Z,-1.67
2023-02-11T04:36:57.680Z,-1.64
2023-02-11T04:37:57.896Z,-1.65
2023-02-11T04:38:58.418Z,-1.62
2023-02-11T04:39:58.730Z,-1.58
2023-02-11T04:40:59.044Z,-1.61
2023-02-11T04:41:59.157Z,-1.55
2023-02-11T04:42:59.576Z,-1.6
2023-02-11T04:44:00.496Z,-1.57
2023-02-11T04:45:00.320Z,-1.59
2023-02-11T04:46:00.586Z,-1.57
2023-02-11T04:47:01.139Z,-1.57
2023-02-11T04:48:03.185Z,-1.57
2023-02-11T04:49:01.557Z,-1.54
2023-02-11T04:50:01.914Z,-1.53
2023-02-11T04:51:02.591Z,-1.54
2023-02-11T04:52:02.601Z,-1.55
2023-02-11T04:53:02.823Z,-1.55
2023-02-11T04:54:03.228Z,-1.53
2023-02-11T04:55:04.936Z,-1.55
2023-02-11T04:56:04.272Z,-1.49
2023-02-11T04:57:04.393Z,-1.45
2023-02-11T04:58:04.386Z,-1.47
2023-02-11T04:59:06.330Z,-1.46
2023-02-11T05:00:07.367Z,-1.39
2023-02-11T05:01:10.510Z,-1.41
2023-02-11T05:02:08.097Z,-1.45
2023-02-11T05:03:08.394Z,-1.45
2023-02-11T05:04:09.070Z,-1.42
2023-02-11T05:05:08.938Z,-1.38
2023-02-11T05:06:10.731Z,-1.39
2023-02-11T05:07:09.763Z,-1.35
2023-02-11T05:08:11.309Z,-1.33
2023-02-11T05:09:12.558Z,-1.32
2023-02-11T05:10:10.708Z,-1.28
2023-02-11T05:11:21.871Z,-1.31
2023-02-11T05:12:14.206Z,-1.31
2023-02-11T05:13:14.525Z,-1.3
2023-02-11T05:14:14.937Z,-1.28
2023-02-11T05:15:15.627Z,-1.25
2023-02-11T05:16:17.120Z,-1.26
2023-02-11T05:17:15.876Z,-1.22
2023-02-11T05:18:16.298Z,-1.22
2023-02-11T05:19:16.572Z,-1.19
2023-02-11T05:20:17.408Z,-1.17
2023-02-11T05:21:19.195Z,-1.14
2023-02-11T05:22:17.551Z,-1.14
2023-02-11T05:23:18.062Z,-1.14
2023-02-11T05:24:18.284Z,-1.14
2023-02-11T05:25:18.594Z,-1.11
2023-02-11T05:26:19.108Z,-1.07
2023-02-11T05:27:19.086Z,-1.09
2023-02-11T05:28:19.537Z,-1.09
2023-02-11T05:29:19.958Z,-1.06
2023-02-11T05:30:20.188Z,-1.02
2023-02-11T05:31:20.469Z,-0.98
2023-02-11T05:32:20.888Z,-0.95
2023-02-11T05:33:21.496Z,-0.94
2023-02-11T05:34:21.535Z,-0.93
2023-02-11T05:35:21.838Z,-0.94
2023-02-11T05:36:22.137Z,-0.9
2023-02-11T05:37:22.670Z,-0.89
2023-02-11T05:38:22.815Z,-0.91
2023-02-11T05:39:23.151Z,-0.9
2023-02-11T05:40:23.617Z,-0.88
2023-02-11T05:41:23.806Z,-0.87
2023-02-11T05:42:24.126Z,-0.86
2023-02-11T05:43:24.467Z,-0.86
2023-02-11T05:44:25.484Z,-0.87
2023-02-11T05:45:25.165Z,-0.86
2023-02-11T05:46:25.444Z,-0.84
2023-02-11T05:47:25.812Z,-0.79
2023-02-11T05:48:26.114Z,-0.74
2023-02-11T05:49:26.447Z,-0.68
2023-02-11T05:50:26.953Z,-0.69
2023-02-11T05:51:27.080Z,-0.65
2023-02-11T05:52:27.374Z,-0.65
2023-02-11T05:53:27.681Z,-0.69
2023-02-11T05:54:28.115Z,-0.67
2023-02-11T05:55:28.531Z,-0.66
2023-02-11T05:56:28.635Z,-0.63
2023-02-11T05:57:29.066Z,-0.58
2023-02-11T05:58:29.543Z,-0.55
2023-02-11T05:59:29.880Z,-0.56
2023-02-11T06:00:29.957Z,-0.53
2023-02-11T06:01:30.434Z,-0.54
2023-02-11T06:02:30.777Z,-0.53
2023-02-11T06:03:31.082Z,-0.52
2023-02-11T06:04:31.447Z,-0.55
2023-02-11T06:05:32.080Z,-0.53
2023-02-11T06:06:32.276Z,-0.5
2023-02-11T06:07:32.491Z,-0.5
2023-02-11T06:08:32.698Z,-0.55
2023-02-11T06:09:33.354Z,-0.53
2023-02-11T06:10:34.758Z,-0.51
2023-02-11T06:11:33.739Z,-0.48
2023-02-11T06:12:34.030Z,-0.49
2023-02-11T06:13:34.987Z,-0.44
2023-02-11T06:14:34.788Z,-0.42
2023-02-11T06:15:35.008Z,-0.43
2023-02-11T06:16:35.413Z,-0.49
2023-02-11T06:17:36.083Z,-0.45
2023-02-11T06:18:36.349Z,-0.46
2023-02-11T06:19:36.667Z,-0.4
2023-02-11T06:20:36.665Z,-0.41
2023-02-11T06:21:43.743Z,-0.46
2023-02-11T06:22:41.704Z,-0.48
2023-02-11T06:23:42.054Z,-0.46
2023-02-11T06:25:00.445Z,-0.43
2023-02-11T06:25:43.362Z,-0.43
2023-02-11T06:26:43.748Z,-0.42
2023-02-11T06:27:44.089Z,-0.39
2023-02-11T06:28:44.613Z,-0.41
2023-02-11T06:29:45.438Z,-0.47
2023-02-11T06:30:46.326Z,-0.43
2023-02-11T06:31:45.551Z,-0.41
2023-02-11T06:32:46.287Z,-0.39
2023-02-11T06:33:46.473Z,-0.37
2023-02-11T06:34:46.766Z,-0.35
2023-02-11T06:35:46.780Z,-0.39
2023-02-11T06:36:47.334Z,-0.39
2023-02-11T06:37:47.645Z,-0.39
2023-02-11T06:38:48.778Z,-0.38
2023-02-11T06:39:48.299Z,-0.4
2023-02-11T06:40:49.618Z,-0.42
2023-02-11T06:41:48.801Z,-0.43
2023-02-11T06:42:49.117Z,-0.41
2023-02-11T06:43:50.658Z,-0.41
2023-02-11T06:44:50.454Z,-0.41
2023-02-11T06:46:53.219Z,-0.39
2023-02-11T06:47:53.413Z,-0.38
2023-02-11T06:48:53.655Z,-0.32
2023-02-11T06:49:54.176Z,-0.37
2023-02-11T06:50:54.494Z,-0.33
2023-02-11T06:51:54.760Z,-0.35
2023-02-11T06:52:55.093Z,-0.32
2023-02-11T06:53:55.345Z,-0.32
2023-02-11T06:54:55.759Z,-0.27
2023-02-11T06:55:56.167Z,-0.33
2023-02-11T06:56:56.474Z,-0.37
2023-02-11T06:57:56.685Z,-0.37
2023-02-11T06:58:57.511Z,-0.36
2023-02-11T06:59:57.629Z,-0.32
2023-02-11T07:00:57.946Z,-0.33
2023-02-11T07:01:58.119Z,-0.29
2023-02-11T07:02:58.393Z,-0.28
2023-02-11T07:03:58.785Z,-0.26
2023-02-11T07:04:59.203Z,-0.26
2023-02-11T07:05:59.511Z,-0.29
2023-02-11T07:06:59.767Z,-0.31
2023-02-11T07:08:00.122Z,-0.33
2023-02-11T07:09:00.658Z,-0.36
2023-02-11T07:10:00.875Z,-0.36
2023-02-11T07:11:01.071Z,-0.34
2023-02-11T07:12:01.555Z,-0.3
2023-02-11T07:13:01.697Z,-0.33
2023-02-11T07:15:05.238Z,-0.27
2023-02-11T07:17:07.263Z,-0.38
2023-02-11T07:18:07.693Z,-0.31
2023-02-11T07:19:07.885Z,-0.23
2023-02-11T07:20:08.928Z,-0.22
2023-02-11T07:21:10.233Z,-0.22
2023-02-11T07:22:09.048Z,-0.23
2023-02-11T07:23:09.356Z,-0.28
2023-02-11T07:24:11.280Z,-0.27
2023-02-11T07:25:10.278Z,-0.27
2023-02-11T07:26:13.033Z,-0.29
2023-02-11T07:27:10.681Z,-0.29
2023-02-11T07:28:11.892Z,-0.19
2023-02-11T07:29:11.433Z,-0.18
2023-02-11T07:30:13.104Z,-0.24
2023-02-11T07:32:13.183Z,-0.23
2023-02-11T07:33:12.798Z,-0.26
2023-02-11T07:34:13.727Z,-0.2
2023-02-11T07:35:13.529Z,-0.2
2023-02-11T07:36:15.576Z,-0.22
2023-02-11T07:37:14.267Z,-0.12
2023-02-11T07:38:14.675Z,-0.13
2023-02-11T07:39:15.203Z,-0.16
2023-02-11T07:40:15.166Z,-0.22
2023-02-11T07:41:17.964Z,-0.24
2023-02-11T07:42:15.959Z,-0.22
2023-02-11T07:43:16.112Z,-0.17
2023-02-11T07:44:16.555Z,-0.19
2023-02-11T07:45:17.184Z,-0.18
2023-02-11T07:46:23.164Z,-0.13
2023-02-11T07:47:20.574Z,-0.1
2023-02-11T07:48:20.880Z,-0.1
2023-02-11T07:49:21.201Z,-0.07
2023-02-11T07:50:21.616Z,-0.08
2023-02-11T07:51:27.877Z,-0.08
2023-02-11T07:52:25.319Z,-0.05
2023-02-11T07:53:25.840Z,-0.02
2023-02-11T07:54:26.043Z,-0.1
2023-02-11T07:55:26.469Z,-0.06
2023-02-11T07:56:27.588Z,-0.05
2023-02-11T07:57:27.512Z,-0.03
2023-02-11T07:58:27.805Z,-0.08
2023-02-11T07:59:27.835Z,-0.05
2023-02-11T08:00:28.341Z,-0.04
2023-02-11T08:01:28.955Z,-0.05
2023-02-11T08:02:28.769Z,-0.02
2023-02-11T08:03:29.178Z,0.02
2023-02-11T08:04:29.384Z,0.03
2023-02-11T08:05:30.209Z,0
2023-02-11T08:06:32.680Z,0
2023-02-11T08:07:30.432Z,-0.07
2023-02-11T08:08:30.742Z,-0.03
2023-02-11T08:09:34.179Z,-0.02
2023-02-11T08:10:32.108Z,-0.11
2023-02-11T08:11:32.728Z,-0.04
2023-02-11T08:12:32.718Z,-0.06
2023-02-11T08:13:33.033Z,0
2023-02-11T08:14:33.425Z,-0.01
2023-02-11T08:15:33.865Z,-0.04
2023-02-11T08:16:35.882Z,-0.06
2023-02-11T08:17:36.258Z,-0.04
2023-02-11T08:18:35.425Z,-0.05
2023-02-11T08:19:35.427Z,-0.1
2023-02-11T08:20:35.529Z,-0.07
2023-02-11T08:21:35.647Z,-0.11
2023-02-11T08:22:36.263Z,-0.17
2023-02-11T08:23:38.237Z,-0.12
2023-02-11T08:24:36.800Z,-0.15
2023-02-11T08:25:37.116Z,-0.16
2023-02-11T08:26:40.486Z,-0.14
2023-02-11T08:27:37.831Z,-0.12
2023-02-11T08:28:40.500Z,-0.16
2023-02-11T08:29:38.580Z,-0.11
2023-02-11T08:30:38.933Z,-0.15
2023-02-11T08:31:42.430Z,-0.11
2023-02-11T08:32:40.116Z,-0.09
2023-02-11T08:33:40.389Z,-0.01
2023-02-11T08:34:41.164Z,0.01
2023-02-11T08:35:41.041Z,0.06
2023-02-11T08:36:42.809Z,0.03
2023-02-11T08:37:41.694Z,0.1
2023-02-11T08:38:42.944Z,0.05
2023-02-11T08:39:42.322Z,0.13
2023-02-11T08:40:42.841Z,0.17
2023-02-11T08:41:43.349Z,0.18
2023-02-11T08:42:43.447Z,0.23
2023-02-11T08:43:44.702Z,0.21
2023-02-11T08:44:43.872Z,0.27
2023-02-11T08:45:45.851Z,0.25
2023-02-11T08:46:44.889Z,0.34
2023-02-11T08:47:44.999Z,0.38
2023-02-11T08:48:46.242Z,0.37
2023-02-11T08:49:45.868Z,0.29
2023-02-11T08:50:46.424Z,0.27
2023-02-11T08:51:47.112Z,0.1
2023-02-11T08:52:46.809Z,0.21
2023-02-11T08:53:47.430Z,0.22
2023-02-11T08:54:47.960Z,0.22
2023-02-11T08:55:55.520Z,0.23
2023-02-11T08:56:52.859Z,0.27
2023-02-11T08:57:53.191Z,0.23
2023-02-11T08:58:55.496Z,0.26
2023-02-11T08:59:54.021Z,0.23
2023-02-11T09:00:54.825Z,0.19
2023-02-11T09:01:57.547Z,0.22
2023-02-11T09:02:57.420Z,0.26
2023-02-11T09:03:56.589Z,0.31
2023-02-11T09:04:55.670Z,0.35
2023-02-11T09:05:55.996Z,0.45
2023-02-11T09:06:56.844Z,0.4
2023-02-11T09:07:56.747Z,0.41
2023-02-11T09:08:57.881Z,0.48
2023-02-11T09:09:57.320Z,0.4
2023-02-11T09:10:57.995Z,0.35
2023-02-11T09:11:58.400Z,0.39
2023-02-11T09:12:58.517Z,0.38
2023-02-11T09:13:59.104Z,0.41
2023-02-11T09:14:59.542Z,0.35
2023-02-11T09:16:01.321Z,0.4
2023-02-11T09:16:59.936Z,0.41
2023-02-11T09:18:00.180Z,0.35
2023-02-11T09:19:02.237Z,0.43
2023-02-11T09:20:01.221Z,0.4
2023-02-11T09:21:10.154Z,0.37
2023-02-11T09:22:02.592Z,0.34
2023-02-11T09:23:02.986Z,0.4
2023-02-11T09:24:03.608Z,0.45
2023-02-11T09:25:03.451Z,0.41
2023-02-11T09:26:09.437Z,0.36
2023-02-11T09:27:07.103Z,0.39
2023-02-11T09:28:08.922Z,0.43
2023-02-11T09:29:07.941Z,0.53
2023-02-11T09:30:09.137Z,0.54
2023-02-11T09:31:10.960Z,0.59
2023-02-11T09:32:10.120Z,0.61
2023-02-11T09:33:10.013Z,0.63
2023-02-11T09:34:12.010Z,0.54
2023-02-11T09:35:10.863Z,0.53
2023-02-11T09:36:11.570Z,0.57
2023-02-11T09:37:10.462Z,0.61
2023-02-11T09:38:10.988Z,0.65
2023-02-11T09:39:17.437Z,0.62
2023-02-11T09:40:16.316Z,0.63
2023-02-11T09:43:22.889Z,0.61
2023-02-11T09:45:28.224Z,0.7
2023-02-11T09:46:27.611Z,0.8
2023-02-11T09:48:32.294Z,0.95
2023-02-11T09:50:40.052Z,1.05
2023-02-11T09:52:45.466Z,0.8
2023-02-11T09:53:42.516Z,0.84
2023-02-11T09:55:45.296Z,0.94
2023-02-11T09:56:42.852Z,1
2023-02-11T09:57:42.815Z,0.95
2023-02-11T09:58:44.901Z,0.93
2023-02-11T09:59:43.710Z,0.98
2023-02-11T10:01:53.703Z,0.91
2023-02-11T10:22:48.546Z,1.15
2023-02-11T10:23:52.142Z,1.2
2023-02-11T10:24:55.534Z,1.31
2023-02-11T10:25:54.824Z,1.25
2023-02-11T10:26:53.085Z,1.24
2023-02-11T10:27:56.986Z,1.18
2023-02-11T10:28:56.105Z,1.12
2023-02-11T10:34:07.267Z,1.14
2023-02-11T10:36:05.543Z,1.36
2023-02-11T10:37:05.235Z,1.35
2023-02-11T10:38:05.540Z,1.32
2023-02-11T10:42:14.689Z,1.37
2023-02-11T10:43:16.849Z,1.28
2023-02-11T10:46:19.797Z,1.44
2023-02-11T10:47:24.136Z,1.5
2023-02-11T10:52:29.081Z,1.34
2023-02-11T10:53:28.589Z,1.47
2023-02-11T10:54:28.796Z,1.48
2023-02-11T10:55:29.319Z,1.53
2023-02-11T10:56:32.926Z,1.52
2023-02-11T10:59:38.987Z,1.63
2023-02-11T11:00:41.127Z,1.62
2023-02-11T11:02:41.140Z,1.62
2023-02-11T11:04:47.621Z,1.45
2023-02-11T11:06:46.360Z,1.45
2023-02-11T11:08:51.859Z,1.39
2023-02-11T11:12:00.058Z,1.39
2023-02-11T11:12:57.597Z,1.4
2023-02-11T11:14:00.379Z,1.43
2023-02-11T11:17:18.817Z,1.44
2023-02-11T11:18:23.479Z,1.34
2023-02-11T11:23:21.522Z,1.49
2023-02-11T11:26:24.309Z,1.64
2023-02-11T11:27:26.150Z,1.49
2023-02-11T11:28:26.675Z,1.5
2023-02-11T11:30:34.299Z,1.54
2023-02-11T11:31:37.763Z,1.47
2023-02-11T11:32:35.413Z,1.35
2023-02-11T11:33:36.739Z,1.4
2023-02-11T11:34:40.042Z,1.36
2023-02-11T11:35:38.293Z,1.32
2023-02-11T11:36:39.748Z,1.32
2023-02-11T11:37:39.257Z,1.24
2023-02-11T11:38:49.288Z,1.24
2023-02-11T11:39:42.323Z,1.16
2023-02-11T11:40:42.014Z,1.18
2023-02-11T11:41:53.884Z,1.27
2023-02-11T11:42:46.786Z,1.24
2023-02-11T11:46:00.208Z,1.26
2023-02-11T11:54:06.782Z,1.36
2023-02-11T11:59:16.620Z,1.24
2023-02-11T12:43:38.654Z,1.03
2023-02-11T12:55:02.575Z,1.09
2023-02-11T12:58:01.669Z,0.96
2023-02-11T12:59:02.048Z,0.94
2023-02-11T13:01:09.528Z,0.91
2023-02-11T13:08:32.457Z,0.48
2023-02-11T13:09:39.126Z,0.5
2023-02-11T13:10:38.113Z,0.46
2023-02-11T13:11:40.579Z,0.41
2023-02-11T13:12:38.345Z,0.37
2023-02-11T13:14:41.210Z,0.31
2023-02-11T13:15:40.199Z,0.29
2023-02-11T13:16:48.107Z,0.34
2023-02-11T13:30:26.035Z,0.19
2023-02-11T13:31:14.802Z,0.15
2023-02-11T13:32:14.856Z,0.08
2023-02-11T13:38:31.329Z,-0.14
2023-02-11T13:39:31.518Z,-0.2
2023-02-11T13:40:38.232Z,-0.18
2023-02-11T13:41:34.154Z,-0.22
2023-02-11T13:42:34.124Z,-0.26
2023-02-11T13:43:36.490Z,-0.3
2023-02-11T13:44:34.752Z,-0.32
2023-02-11T13:47:39.684Z,-0.45
2023-02-11T13:48:47.894Z,-0.47
2023-02-11T13:49:49.115Z,-0.54
2023-02-11T13:50:48.634Z,-0.62
2023-02-11T13:51:46.383Z,-0.69
2023-02-11T13:52:46.423Z,-0.79
2023-02-11T13:53:58.772Z,-0.88
2023-02-11T13:54:52.827Z,-0.89
2023-02-11T14:01:05.313Z,-0.98
2023-02-11T14:06:29.263Z,-1.07
2023-02-11T14:07:33.744Z,-1.07
2023-02-11T14:08:31.217Z,-1.08
2023-02-11T14:09:37.887Z,-1.11
2023-02-11T14:12:40.561Z,-1.17
2023-02-11T14:15:49.392Z,-1.27
2023-02-11T14:17:51.456Z,-1.28
2023-02-11T14:19:52.694Z,-1.34
2023-02-11T14:22:06.769Z,-1.38
2023-02-11T14:22:59.903Z,-1.38
2023-02-11T14:27:15.799Z,-1.42
2023-02-11T14:31:29.557Z,-1.38
2023-02-11T14:41:43.028Z,-1.43
2023-02-11T14:42:40.576Z,-1.44
2023-02-11T14:43:45.904Z,-1.46
2023-02-11T14:44:43.445Z,-1.52
2023-02-11T14:45:48.508Z,-1.51
2023-02-11T14:46:48.803Z,-1.52
2023-02-11T14:48:50.719Z,-1.58
2023-02-11T14:49:49.954Z,-1.58
2023-02-11T14:51:49.246Z,-1.63
2023-02-11T14:52:50.050Z,-1.61
2023-02-11T14:53:52.436Z,-1.63
2023-02-11T14:54:52.348Z,-1.61
2023-02-11T14:55:52.745Z,-1.6
2023-02-11T14:59:00.751Z,-1.57
2023-02-11T15:00:04.792Z,-1.55
2023-02-11T15:01:05.597Z,-1.56
2023-02-11T15:02:03.522Z,-1.58
2023-02-11T15:03:03.856Z,-1.54
2023-02-11T15:04:06.533Z,-1.54
2023-02-11T15:06:19.345Z,-1.53
2023-02-11T15:07:14.010Z,-1.53
2023-02-11T15:08:16.140Z,-1.48
2023-02-11T15:11:25.206Z,-1.51
2023-02-11T15:12:26.126Z,-1.55
2023-02-11T15:13:26.436Z,-1.58
2023-02-11T15:15:27.359Z,-1.57
2023-02-11T15:16:27.993Z,-1.57
2023-02-11T15:17:29.528Z,-1.59
2023-02-11T15:19:34.795Z,-1.6
2023-02-11T15:20:33.968Z,-1.62
2023-02-11T15:21:35.906Z,-1.59
2023-02-11T15:22:35.101Z,-1.61
2023-02-11T15:23:33.993Z,-1.64
2023-02-11T15:24:35.511Z,-1.65
2023-02-11T15:25:34.490Z,-1.69
2023-02-11T15:26:35.128Z,-1.71
2023-02-11T15:28:35.645Z,-1.73
2023-02-11T15:29:46.319Z,-1.76
2023-02-11T15:30:38.945Z,-1.79
2023-02-11T15:31:39.186Z,-1.85
2023-02-11T15:32:44.564Z,-1.88
2023-02-11T15:33:42.227Z,-1.9
2023-02-11T15:34:43.986Z,-1.83
2023-02-11T15:35:42.767Z,-1.92
2023-02-11T15:36:43.602Z,-1.92
2023-02-11T15:37:44.219Z,-1.92
2023-02-11T15:38:43.931Z,-1.96
2023-02-11T15:39:44.148Z,-1.93
2023-02-11T15:41:47.938Z,-1.96
2023-02-11T15:43:00.230Z,-1.98
2023-02-11T15:43:52.518Z,-2.01
2023-02-11T15:46:56.774Z,-2.01
2023-02-11T15:49:00.266Z,-2.04
2023-02-11T15:49:59.968Z,-2.06
2023-02-11T15:51:03.768Z,-2.09
2023-02-11T15:52:02.956Z,-2.08
2023-02-11T15:55:15.581Z,-2.12
2023-02-11T15:57:10.976Z,-2.23
2023-02-11T15:58:12.412Z,-2.26
2023-02-11T16:00:19.096Z,-2.26
2023-02-11T16:01:17.258Z,-2.33
2023-02-11T16:03:26.260Z,-2.35
2023-02-11T16:04:30.123Z,-2.4
2023-02-11T16:05:38.830Z,-2.4
2023-02-11T16:06:42.669Z,-2.38
2023-02-11T16:07:44.318Z,-2.41
2023-02-11T16:08:36.842Z,-2.34
2023-02-11T16:09:37.115Z,-2.31
2023-02-11T16:10:37.496Z,-2.36
2023-02-11T16:12:40.768Z,-2.42
2023-02-11T16:13:47.248Z,-2.37
2023-02-11T16:14:47.750Z,-2.41
2023-02-11T16:15:50.309Z,-2.39
2023-02-11T16:16:51.436Z,-2.36
2023-02-11T16:17:49.289Z,-2.4
2023-02-11T16:19:04.629Z,-2.44
2023-02-11T16:19:53.989Z,-2.43
2023-02-11T16:20:54.004Z,-2.48
2023-02-11T16:21:56.492Z,-2.46
2023-02-11T16:22:54.756Z,-2.44
2023-02-11T16:23:57.527Z,-2.46
2023-02-11T16:25:04.875Z,-2.4
2023-02-11T16:28:06.421Z,-2.56
2023-02-11T16:31:11.337Z,-2.63
2023-02-11T16:32:22.857Z,-2.62
2023-02-11T16:33:15.614Z,-2.66
2023-02-11T16:34:18.704Z,-2.66
2023-02-11T16:35:16.170Z,-2.66
2023-02-11T16:36:16.875Z,-2.6
2023-02-11T16:37:18.096Z,-2.62
2023-02-11T16:38:18.396Z,-2.65
2023-02-11T16:39:20.677Z,-2.64
2023-02-11T16:40:18.832Z,-2.64
2023-02-11T16:41:18.939Z,-2.71
2023-02-11T16:42:19.252Z,-2.72
2023-02-11T16:43:20.602Z,-2.7
2023-02-11T16:44:22.852Z,-2.71
2023-02-11T16:45:20.407Z,-2.78
2023-02-11T16:46:21.363Z,-2.74
2023-02-11T16:47:26.971Z,-2.79
2023-02-11T16:48:25.662Z,-2.87
2023-02-11T16:49:31.287Z,-2.91
2023-02-11T16:50:29.040Z,-2.91
2023-02-11T16:51:29.256Z,-2.81
2023-02-11T16:52:29.764Z,-2.74
2023-02-11T16:53:29.885Z,-2.78
2023-02-11T16:54:30.711Z,-2.84
2023-02-11T16:55:32.628Z,-2.85
2023-02-11T16:56:31.326Z,-2.92
2023-02-11T16:57:31.747Z,-2.93
2023-02-11T16:58:32.040Z,-2.94
2023-02-11T16:59:32.383Z,-2.97
2023-02-11T17:00:32.877Z,-2.94
2023-02-11T17:01:33.681Z,-2.92
2023-02-11T17:02:37.234Z,-2.94
2023-02-11T17:03:38.217Z,-2.96
2023-02-11T17:04:35.847Z,-3.02
2023-02-11T17:05:53.179Z,-3.04
2023-02-11T17:06:37.251Z,-3.07
2023-02-11T17:07:37.672Z,-3.13
2023-02-11T17:08:38.072Z,-3.17
2023-02-11T17:09:38.752Z,-3.11
2023-02-11T17:10:38.893Z,-3.14
2023-02-11T17:11:39.321Z,-3.17
2023-02-11T17:12:39.742Z,-3.16
2023-02-11T17:13:40.048Z,-3.12
2023-02-11T17:14:40.456Z,-3.1
2023-02-11T17:15:40.975Z,-3.12
2023-02-11T17:16:42.083Z,-3.16
2023-02-11T17:17:41.706Z,-3.2
2023-02-11T17:18:42.019Z,-3.18
2023-02-11T17:19:42.466Z,-3.18
2023-02-11T17:20:42.978Z,-3.14
2023-02-11T17:21:47.145Z,-3.1
2023-02-11T17:22:44.616Z,-3.21
2023-02-11T17:23:44.908Z,-3.2
2023-02-11T17:24:45.355Z,-3.18
2023-02-11T17:25:45.662Z,-3.07
2023-02-11T17:26:46.898Z,-3.09
2023-02-11T17:27:46.597Z,-3.19
2023-02-11T17:28:46.907Z,-3.21
2023-02-11T17:29:47.322Z,-3.22
2023-02-11T17:30:47.787Z,-3.29
2023-02-11T17:31:49.136Z,-3.23
2023-02-11T17:32:49.083Z,-3.18
2023-02-11T17:33:48.983Z,-3.18
2023-02-11T17:34:49.384Z,-3.17
2023-02-11T17:35:50.280Z,-3.18
2023-02-11T17:36:51.571Z,-3.28
2023-02-11T17:37:51.345Z,-3.29
2023-02-11T17:38:50.976Z,-3.23
2023-02-11T17:39:51.489Z,-3.21
2023-02-11T17:41:56.330Z,-3.19
2023-02-11T17:42:56.648Z,-3.2
2023-02-11T17:44:01.041Z,-3.18
2023-02-11T17:44:58.462Z,-3.16
2023-02-11T17:45:59.221Z,-3.12
2023-02-11T17:46:59.417Z,-3.13
2023-02-11T17:47:59.528Z,-3.19
2023-02-11T17:49:00.047Z,-3.19
2023-02-11T17:50:00.674Z,-3.2
2023-02-11T17:51:00.856Z,-3.15
2023-02-11T17:52:01.297Z,-3.12
2023-02-11T17:53:01.810Z,-3.14
2023-02-11T17:54:05.817Z,-3.08
2023-02-11T17:55:03.256Z,-3.1